sensor_id;sensor_type;location;lat;lon;timestamp;pressure;altitude;pressure_sealevel;temperature;humidity
62703;BME280;66022;50.448;18.122;2023-03-18T00:02:05;99332.01;;;5.79;46.23
62703;BME280;66022;50.448;18.122;2023-03-18T00:06:09;99329.52;;;5.76;44.77
62703;BME280;66022;50.448;18.122;2023-03-18T00:10:13;99328.61;;;5.75;47.57
62703;BME280;66022;50.448;18.122;2023-03-18T00:14:17;99326.86;;;5.72;47.87
62703;BME280;66022;50.448;18.122;2023-03-18T00:18:21;99325.86;;;5.61;48.38
62703;BME280;66022;50.448;18.122;2023-03-18T00:22:25;99325.55;;;5.55;48.78
62703;BME280;66022;50.448;18.122;2023-03-18T00:26:29;99324.24;;;5.44;48.34
62703;BME280;66022;50.448;18.122;2023-03-18T00:30:35;99321.04;;;5.36;49.51
62703;BME280;66022;50.448;18.122;2023-03-18T00:34:37;99318.89;;;5.27;49.62
62703;BME280;66022;50.448;18.122;2023-03-18T00:38:41;99316.39;;;5.15;49.85
62703;BME280;66022;50.448;18.122;2023-03-18T00:42:45;99313.89;;;5.05;50.02
62703;BME280;66022;50.448;18.122;2023-03-18T00:46:49;99310.64;;;4.94;50.32
62703;BME280;66022;50.448;18.122;2023-03-18T00:50:53;99307.36;;;4.85;50.17
62703;BME280;66022;50.448;18.122;2023-03-18T00:54:57;99304.38;;;4.77;50.32
62703;BME280;66022;50.448;18.122;2023-03-18T00:59:01;99301.51;;;4.68;50.42
62703;BME280;66022;50.448;18.122;2023-03-18T01:03:06;99299.08;;;4.63;50.25
62703;BME280;66022;50.448;18.122;2023-03-18T01:07:13;99295.09;;;4.58;50.30
62703;BME280;66022;50.448;18.122;2023-03-18T01:11:17;99291.25;;;4.57;49.93
62703;BME280;66022;50.448;18.122;2023-03-18T01:15:18;99286.60;;;4.56;49.42
62703;BME280;66022;50.448;18.122;2023-03-18T01:19:21;99282.76;;;4.56;49.60
62703;BME280;66022;50.448;18.122;2023-03-18T01:23:25;99279.19;;;4.57;49.36
62703;BME280;66022;50.448;18.122;2023-03-18T01:27:29;99275.78;;;4.54;49.46
62703;BME280;66022;50.448;18.122;2023-03-18T01:31:33;99272.86;;;4.53;49.93
62703;BME280;66022;50.448;18.122;2023-03-18T01:35:37;99269.94;;;4.49;50.29
62703;BME280;66022;50.448;18.122;2023-03-18T01:39:41;99268.09;;;4.44;50.33
62703;BME280;66022;50.448;18.122;2023-03-18T01:43:45;99266.00;;;4.38;50.53
62703;BME280;66022;50.448;18.122;2023-03-18T01:47:49;99264.15;;;4.30;50.72
62703;BME280;66022;50.448;18.122;2023-03-18T01:51:54;99261.55;;;4.25;50.49
62703;BME280;66022;50.448;18.122;2023-03-18T01:55:57;99259.94;;;4.17;50.23
62703;BME280;66022;50.448;18.122;2023-03-18T02:00:02;99258.33;;;4.13;50.40
62703;BME280;66022;50.448;18.122;2023-03-18T02:04:06;99258.67;;;4.08;50.96
62703;BME280;66022;50.448;18.122;2023-03-18T02:08:09;99259.61;;;3.99;51.16
62703;BME280;66022;50.448;18.122;2023-03-18T02:12:14;99260.61;;;3.94;51.41
62703;BME280;66022;50.448;18.122;2023-03-18T02:16:19;99262.37;;;3.85;52.17
62703;BME280;66022;50.448;18.122;2023-03-18T02:24:32;99266.96;;;3.71;52.66
62703;BME280;66022;50.448;18.122;2023-03-18T02:28:29;99270.15;;;3.61;53.04
62703;BME280;66022;50.448;18.122;2023-03-18T02:32:33;99272.17;;;3.54;53.04
62703;BME280;66022;50.448;18.122;2023-03-18T02:36:37;99274.05;;;3.46;53.15
62703;BME280;66022;50.448;18.122;2023-03-18T02:40:41;99275.00;;;3.41;52.85
62703;BME280;66022;50.448;18.122;2023-03-18T02:44:45;99275.97;;;3.37;52.53
62703;BME280;66022;50.448;18.122;2023-03-18T02:48:49;99275.34;;;3.32;52.58
62703;BME280;66022;50.448;18.122;2023-03-18T02:52:53;99274.92;;;3.29;52.37
62703;BME280;66022;50.448;18.122;2023-03-18T02:56:57;99274.56;;;3.26;52.70
62703;BME280;66022;50.448;18.122;2023-03-18T03:01:02;99274.05;;;3.24;52.44
62703;BME280;66022;50.448;18.122;2023-03-18T03:05:05;99274.53;;;3.22;52.94
62703;BME280;66022;50.448;18.122;2023-03-18T03:09:10;99275.00;;;3.19;53.29
62703;BME280;66022;50.448;18.122;2023-03-18T03:13:13;99275.98;;;3.17;53.17
62703;BME280;66022;50.448;18.122;2023-03-18T03:17:17;99275.87;;;3.12;53.78
62703;BME280;66022;50.448;18.122;2023-03-18T03:21:21;99274.87;;;3.10;53.15
62703;BME280;66022;50.448;18.122;2023-03-18T03:25:25;99274.33;;;3.08;53.27
62703;BME280;66022;50.448;18.122;2023-03-18T03:29:29;99273.02;;;3.06;53.46
62703;BME280;66022;50.448;18.122;2023-03-18T03:33:33;99271.50;;;3.05;53.51
62703;BME280;66022;50.448;18.122;2023-03-18T03:37:37;99270.39;;;3.02;53.42
62703;BME280;66022;50.448;18.122;2023-03-18T03:41:41;99270.23;;;3.01;53.47
62703;BME280;66022;50.448;18.122;2023-03-18T03:45:45;99269.36;;;2.97;53.44
62703;BME280;66022;50.448;18.122;2023-03-18T03:49:49;99269.01;;;2.96;53.54
62703;BME280;66022;50.448;18.122;2023-03-18T03:53:53;99268.68;;;2.96;53.67
62703;BME280;66022;50.448;18.122;2023-03-18T03:57:57;99268.24;;;2.92;54.06
62703;BME280;66022;50.448;18.122;2023-03-18T04:02:01;99268.81;;;2.92;53.80
62703;BME280;66022;50.448;18.122;2023-03-18T04:06:05;99269.30;;;2.90;53.68
62703;BME280;66022;50.448;18.122;2023-03-18T04:10:10;99269.48;;;2.91;53.50
62703;BME280;66022;50.448;18.122;2023-03-18T04:14:13;99270.97;;;2.92;53.71
62703;BME280;66022;50.448;18.122;2023-03-18T04:18:17;99271.14;;;2.91;53.91
62703;BME280;66022;50.448;18.122;2023-03-18T04:22:21;99272.47;;;2.92;53.61
62703;BME280;66022;50.448;18.122;2023-03-18T04:26:25;99274.05;;;2.92;53.44
62703;BME280;66022;50.448;18.122;2023-03-18T04:30:29;99275.96;;;2.95;52.90
62703;BME280;66022;50.448;18.122;2023-03-18T04:34:33;99279.00;;;2.97;53.17
62703;BME280;66022;50.448;18.122;2023-03-18T04:38:37;99279.83;;;2.97;53.20
62703;BME280;66022;50.448;18.122;2023-03-18T04:42:41;99280.81;;;2.98;53.46
62703;BME280;66022;50.448;18.122;2023-03-18T04:46:45;99281.40;;;2.97;53.08
62703;BME280;66022;50.448;18.122;2023-03-18T04:50:49;99282.83;;;2.99;53.01
62703;BME280;66022;50.448;18.122;2023-03-18T04:54:53;99285.57;;;3.00;53.64
62703;BME280;66022;50.448;18.122;2023-03-18T04:58:57;99287.31;;;2.99;53.94
62703;BME280;66022;50.448;18.122;2023-03-18T05:03:01;99287.70;;;2.98;53.93
62703;BME280;66022;50.448;18.122;2023-03-18T05:07:05;99289.62;;;2.97;53.91
62703;BME280;66022;50.448;18.122;2023-03-18T05:11:09;99290.94;;;2.98;53.13
62703;BME280;66022;50.448;18.122;2023-03-18T05:15:13;99293.36;;;3.00;53.40
62703;BME280;66022;50.448;18.122;2023-03-18T05:19:17;99296.04;;;3.04;53.04
62703;BME280;66022;50.448;18.122;2023-03-18T05:23:21;99298.83;;;3.09;53.26
62703;BME280;66022;50.448;18.122;2023-03-18T05:27:25;99301.14;;;3.14;53.01
62703;BME280;66022;50.448;18.122;2023-03-18T05:31:29;99303.34;;;3.22;52.77
62703;BME280;66022;50.448;18.122;2023-03-18T05:35:33;99305.15;;;3.29;53.12
62703;BME280;66022;50.448;18.122;2023-03-18T05:39:45;99307.87;;;3.38;53.25
62703;BME280;66022;50.448;18.122;2023-03-18T05:43:42;99309.70;;;3.50;52.92
62703;BME280;66022;50.448;18.122;2023-03-18T05:47:48;99310.71;;;3.62;52.81
62703;BME280;66022;50.448;18.122;2023-03-18T05:51:49;99310.96;;;3.78;52.12
62703;BME280;66022;50.448;18.122;2023-03-18T05:55:53;99311.30;;;3.92;52.16
62703;BME280;66022;50.448;18.122;2023-03-18T05:59:57;99311.63;;;4.09;50.95
62703;BME280;66022;50.448;18.122;2023-03-18T06:04:02;99312.20;;;4.26;51.35
62703;BME280;66022;50.448;18.122;2023-03-18T06:08:05;99313.90;;;4.41;50.57
62703;BME280;66022;50.448;18.122;2023-03-18T06:12:09;99315.30;;;4.57;50.67
62703;BME280;66022;50.448;18.122;2023-03-18T06:16:13;99317.50;;;4.70;48.85
62703;BME280;66022;50.448;18.122;2023-03-18T06:20:17;99319.12;;;4.88;48.47
62703;BME280;66022;50.448;18.122;2023-03-18T06:24:21;99320.14;;;5.08;48.96
62703;BME280;66022;50.448;18.122;2023-03-18T06:28:25;99320.56;;;5.26;48.14
62703;BME280;66022;50.448;18.122;2023-03-18T06:32:29;99320.65;;;5.48;47.65
62703;BME280;66022;50.448;18.122;2023-03-18T06:36:33;99321.29;;;5.67;46.52
62703;BME280;66022;50.448;18.122;2023-03-18T06:40:37;99322.58;;;5.88;46.41
62703;BME280;66022;50.448;18.122;2023-03-18T06:44:41;99323.80;;;6.08;46.94
62703;BME280;66022;50.448;18.122;2023-03-18T06:48:45;99324.82;;;6.25;46.36
62703;BME280;66022;50.448;18.122;2023-03-18T06:52:49;99325.67;;;6.43;46.79
62703;BME280;66022;50.448;18.122;2023-03-18T06:56:53;99327.34;;;6.62;45.41
62703;BME280;66022;50.448;18.122;2023-03-18T07:00:57;99329.12;;;6.88;44.59
62703;BME280;66022;50.448;18.122;2023-03-18T07:05:01;99330.52;;;7.13;45.93
62703;BME280;66022;50.448;18.122;2023-03-18T07:09:05;99331.95;;;7.36;44.37
62703;BME280;66022;50.448;18.122;2023-03-18T07:13:09;99334.16;;;7.62;45.11
62703;BME280;66022;50.448;18.122;2023-03-18T07:17:13;99335.83;;;7.87;44.36
62703;BME280;66022;50.448;18.122;2023-03-18T07:21:17;99336.45;;;8.16;44.24
62703;BME280;66022;50.448;18.122;2023-03-18T07:25:21;99336.30;;;8.44;43.21
62703;BME280;66022;50.448;18.122;2023-03-18T07:29:25;99336.32;;;8.70;41.10
62703;BME280;66022;50.448;18.122;2023-03-18T07:33:29;99336.67;;;8.94;41.54
62703;BME280;66022;50.448;18.122;2023-03-18T07:37:34;99336.83;;;9.17;40.59
62703;BME280;66022;50.448;18.122;2023-03-18T07:41:37;99337.55;;;9.41;40.34
62703;BME280;66022;50.448;18.122;2023-03-18T07:45:42;99338.87;;;9.62;39.18
62703;BME280;66022;50.448;18.122;2023-03-18T07:49:45;99339.42;;;9.83;39.86
62703;BME280;66022;50.448;18.122;2023-03-18T07:53:49;99340.11;;;10.09;39.61
62703;BME280;66022;50.448;18.122;2023-03-18T07:57:53;99339.75;;;10.29;39.12
62703;BME280;66022;50.448;18.122;2023-03-18T08:01:57;99341.52;;;10.51;38.93
62703;BME280;66022;50.448;18.122;2023-03-18T08:06:01;99342.58;;;10.65;35.78
62703;BME280;66022;50.448;18.122;2023-03-18T08:10:06;99343.68;;;10.80;38.62
62703;BME280;66022;50.448;18.122;2023-03-18T08:14:09;99345.15;;;10.93;38.11
62703;BME280;66022;50.448;18.122;2023-03-18T08:18:13;99346.00;;;10.97;37.55
62703;BME280;66022;50.448;18.122;2023-03-18T08:22:17;99344.83;;;11.04;39.58
62703;BME280;66022;50.448;18.122;2023-03-18T08:26:22;99345.67;;;11.00;37.31
62703;BME280;66022;50.448;18.122;2023-03-18T08:30:25;99345.78;;;10.99;39.80
62703;BME280;66022;50.448;18.122;2023-03-18T08:34:30;99344.69;;;10.94;39.25
62703;BME280;66022;50.448;18.122;2023-03-18T08:38:33;99344.04;;;10.86;39.81
62703;BME280;66022;50.448;18.122;2023-03-18T08:42:37;99343.16;;;10.88;39.04
62703;BME280;66022;50.448;18.122;2023-03-18T08:46:42;99341.33;;;10.90;38.56
62703;BME280;66022;50.448;18.122;2023-03-18T08:50:46;99338.94;;;10.97;37.39
62703;BME280;66022;50.448;18.122;2023-03-18T08:54:49;99337.77;;;11.07;38.28
62703;BME280;66022;50.448;18.122;2023-03-18T08:58:53;99336.52;;;11.20;38.25
62703;BME280;66022;50.448;18.122;2023-03-18T09:02:58;99335.71;;;11.34;38.63
62703;BME280;66022;50.448;18.122;2023-03-18T09:07:02;99334.65;;;11.46;38.31
62703;BME280;66022;50.448;18.122;2023-03-18T09:11:06;99334.17;;;11.62;36.95
62703;BME280;66022;50.448;18.122;2023-03-18T09:15:10;99331.44;;;11.80;36.86
62703;BME280;66022;50.448;18.122;2023-03-18T09:19:14;99330.59;;;11.98;36.85
62703;BME280;66022;50.448;18.122;2023-03-18T09:23:18;99327.70;;;12.21;36.31
62703;BME280;66022;50.448;18.122;2023-03-18T09:27:22;99323.49;;;12.45;34.88
62703;BME280;66022;50.448;18.122;2023-03-18T09:31:26;99321.50;;;12.69;35.38
62703;BME280;66022;50.448;18.122;2023-03-18T09:35:30;99319.41;;;12.91;35.67
62703;BME280;66022;50.448;18.122;2023-03-18T09:39:34;99315.68;;;13.13;33.86
62703;BME280;66022;50.448;18.122;2023-03-18T09:55:54;99306.17;;;13.85;29.46
62703;BME280;66022;50.448;18.122;2023-03-18T10:04:05;99302.39;;;14.15;32.02
62703;BME280;66022;50.448;18.122;2023-03-18T10:12:06;99298.41;;;14.43;31.68
62703;BME280;66022;50.448;18.122;2023-03-18T10:16:11;99297.75;;;14.45;26.95
62703;BME280;66022;50.448;18.122;2023-03-18T10:40:35;99290.09;;;15.06;31.57
62703;BME280;66022;50.448;18.122;2023-03-18T10:44:39;99287.30;;;15.16;31.22
62703;BME280;66022;50.448;18.122;2023-03-18T10:48:43;99285.13;;;15.26;30.60
62703;BME280;66022;50.448;18.122;2023-03-18T10:56:50;99280.58;;;15.50;29.66
62703;BME280;66022;50.448;18.122;2023-03-18T11:00:54;99279.36;;;15.55;31.16
62703;BME280;66022;50.448;18.122;2023-03-18T11:05:11;99278.75;;;15.60;30.16
62703;BME280;66022;50.448;18.122;2023-03-18T11:09:05;99276.29;;;15.63;31.26
62703;BME280;66022;50.448;18.122;2023-03-18T11:13:06;99273.91;;;15.72;31.14
62703;BME280;66022;50.448;18.122;2023-03-18T11:21:14;99267.64;;;15.82;30.20
62703;BME280;66022;50.448;18.122;2023-03-18T11:25:19;99263.73;;;15.88;33.38
62703;BME280;66022;50.448;18.122;2023-03-18T11:29:24;99260.89;;;15.97;31.11
62703;BME280;66022;50.448;18.122;2023-03-18T11:33:29;99257.22;;;16.02;30.34
62703;BME280;66022;50.448;18.122;2023-03-18T11:37:34;99254.38;;;16.05;30.83
62703;BME280;66022;50.448;18.122;2023-03-18T11:41:34;99252.34;;;16.05;30.67
62703;BME280;66022;50.448;18.122;2023-03-18T11:49:42;99245.65;;;15.99;30.22
62703;BME280;66022;50.448;18.122;2023-03-18T11:57:55;99239.65;;;15.83;31.79
62703;BME280;66022;50.448;18.122;2023-03-18T12:01:59;99237.95;;;15.81;31.83
62703;BME280;66022;50.448;18.122;2023-03-18T12:06:06;99235.67;;;15.69;28.27
62703;BME280;66022;50.448;18.122;2023-03-18T12:10:05;99232.11;;;15.55;31.55
62703;BME280;66022;50.448;18.122;2023-03-18T12:34:32;99221.26;;;15.13;31.97
62703;BME280;66022;50.448;18.122;2023-03-18T12:46:45;99220.87;;;15.14;29.25
62703;BME280;66022;50.448;18.122;2023-03-18T12:50:43;99219.34;;;15.15;30.58
62703;BME280;66022;50.448;18.122;2023-03-18T12:54:50;99216.50;;;15.14;30.02
62703;BME280;66022;50.448;18.122;2023-03-18T12:58:53;99215.78;;;15.08;29.21
62703;BME280;66022;50.448;18.122;2023-03-18T13:11:04;99208.29;;;15.03;33.16
62703;BME280;66022;50.448;18.122;2023-03-18T13:19:10;99203.92;;;15.01;31.54
62703;BME280;66022;50.448;18.122;2023-03-18T13:35:32;99195.58;;;14.98;32.19
62703;BME280;66022;50.448;18.122;2023-03-18T13:43:34;99192.36;;;14.89;32.88
62703;BME280;66022;50.448;18.122;2023-03-18T13:47:38;99190.80;;;14.87;32.68
62703;BME280;66022;50.448;18.122;2023-03-18T13:51:47;99189.87;;;14.86;32.93
62703;BME280;66022;50.448;18.122;2023-03-18T13:55:48;99187.93;;;14.84;29.60
62703;BME280;66022;50.448;18.122;2023-03-18T13:59:50;99186.72;;;14.84;32.54
62703;BME280;66022;50.448;18.122;2023-03-18T14:07:58;99185.89;;;14.86;31.77
62703;BME280;66022;50.448;18.122;2023-03-18T14:16:09;99184.60;;;14.87;28.38
62703;BME280;66022;50.448;18.122;2023-03-18T14:24:21;99180.88;;;14.87;31.74
62703;BME280;66022;50.448;18.122;2023-03-18T14:28:18;99178.49;;;14.79;31.86
62703;BME280;66022;50.448;18.122;2023-03-18T14:40:33;99172.90;;;14.65;32.26
62703;BME280;66022;50.448;18.122;2023-03-18T14:48:38;99168.70;;;14.50;31.83
62703;BME280;66022;50.448;18.122;2023-03-18T14:52:43;99166.03;;;14.43;32.21
62703;BME280;66022;50.448;18.122;2023-03-18T14:56:50;99164.53;;;14.34;30.87
62703;BME280;66022;50.448;18.122;2023-03-18T15:00:54;99162.72;;;14.28;34.45
62703;BME280;66022;50.448;18.122;2023-03-18T15:04:54;99160.30;;;14.23;35.19
62703;BME280;66022;50.448;18.122;2023-03-18T15:13:03;99159.72;;;14.14;33.62
62703;BME280;66022;50.448;18.122;2023-03-18T15:17:11;99160.02;;;14.10;33.50
62703;BME280;66022;50.448;18.122;2023-03-18T15:21:14;99160.28;;;14.10;35.71
62703;BME280;66022;50.448;18.122;2023-03-18T15:25:15;99162.09;;;14.11;34.48
62703;BME280;66022;50.448;18.122;2023-03-18T15:29:23;99161.78;;;14.11;35.36
62703;BME280;66022;50.448;18.122;2023-03-18T15:33:23;99162.62;;;14.11;35.11
62703;BME280;66022;50.448;18.122;2023-03-18T15:37:33;99163.19;;;14.09;34.50
62703;BME280;66022;50.448;18.122;2023-03-18T15:41:30;99163.75;;;14.08;35.29
62703;BME280;66022;50.448;18.122;2023-03-18T15:45:34;99164.50;;;14.06;35.59
62703;BME280;66022;50.448;18.122;2023-03-18T15:53:42;99168.56;;;13.97;34.75
62703;BME280;66022;50.448;18.122;2023-03-18T15:57:46;99171.32;;;13.89;34.89
62703;BME280;66022;50.448;18.122;2023-03-18T16:01:50;99174.95;;;13.81;35.98
62703;BME280;66022;50.448;18.122;2023-03-18T16:05:54;99178.91;;;13.70;31.57
62703;BME280;66022;50.448;18.122;2023-03-18T16:09:58;99181.75;;;13.59;33.38
62703;BME280;66022;50.448;18.122;2023-03-18T16:14:02;99184.12;;;13.49;35.21
62703;BME280;66022;50.448;18.122;2023-03-18T16:18:06;99185.88;;;13.36;35.61
62703;BME280;66022;50.448;18.122;2023-03-18T16:22:10;99186.81;;;13.25;39.04
62703;BME280;66022;50.448;18.122;2023-03-18T16:26:15;99188.42;;;13.12;31.96
62703;BME280;66022;50.448;18.122;2023-03-18T16:30:19;99190.24;;;13.02;36.62
62703;BME280;66022;50.448;18.122;2023-03-18T16:34:22;99192.27;;;12.93;37.74
62703;BME280;66022;50.448;18.122;2023-03-18T16:38:26;99194.94;;;12.81;36.31
62703;BME280;66022;50.448;18.122;2023-03-18T16:42:30;99197.21;;;12.71;35.37
62703;BME280;66022;50.448;18.122;2023-03-18T16:46:34;99201.22;;;12.58;35.50
62703;BME280;66022;50.448;18.122;2023-03-18T16:50:38;99204.13;;;12.49;37.48
62703;BME280;66022;50.448;18.122;2023-03-18T16:54:42;99206.86;;;12.39;38.38
62703;BME280;66022;50.448;18.122;2023-03-18T16:58:46;99209.97;;;12.28;37.64
62703;BME280;66022;50.448;18.122;2023-03-18T17:02:50;99212.27;;;12.19;37.80
62703;BME280;66022;50.448;18.122;2023-03-18T17:06:54;99214.70;;;12.07;37.79
62703;BME280;66022;50.448;18.122;2023-03-18T17:10:58;99217.52;;;11.97;37.19
62703;BME280;66022;50.448;18.122;2023-03-18T17:15:02;99221.37;;;11.87;39.39
62703;BME280;66022;50.448;18.122;2023-03-18T17:19:08;99224.36;;;11.77;38.42
62703;BME280;66022;50.448;18.122;2023-03-18T17:23:14;99226.99;;;11.67;38.83
62703;BME280;66022;50.448;18.122;2023-03-18T17:27:18;99230.39;;;11.56;39.10
62703;BME280;66022;50.448;18.122;2023-03-18T17:31:18;99233.60;;;11.47;39.23
62703;BME280;66022;50.448;18.122;2023-03-18T17:35:22;99235.69;;;11.38;39.56
62703;BME280;66022;50.448;18.122;2023-03-18T17:39:26;99237.53;;;11.28;38.72
62703;BME280;66022;50.448;18.122;2023-03-18T17:43:39;99239.15;;;11.20;38.65
62703;BME280;66022;50.448;18.122;2023-03-18T17:47:34;99241.14;;;11.11;39.44
62703;BME280;66022;50.448;18.122;2023-03-18T17:51:38;99241.68;;;11.04;39.70
62703;BME280;66022;50.448;18.122;2023-03-18T17:55:42;99242.35;;;10.96;38.73
62703;BME280;66022;50.448;18.122;2023-03-18T17:59:49;99243.63;;;10.89;38.95
62703;BME280;66022;50.448;18.122;2023-03-18T18:03:50;99244.50;;;10.84;40.44
62703;BME280;66022;50.448;18.122;2023-03-18T18:07:54;99244.37;;;10.77;40.24
62703;BME280;66022;50.448;18.122;2023-03-18T18:11:58;99243.39;;;10.74;40.40
62703;BME280;66022;50.448;18.122;2023-03-18T18:16:02;99242.92;;;10.67;37.71
62703;BME280;66022;50.448;18.122;2023-03-18T18:20:08;99241.44;;;10.63;40.16
62703;BME280;66022;50.448;18.122;2023-03-18T18:24:11;99240.45;;;10.59;40.66
62703;BME280;66022;50.448;18.122;2023-03-18T18:28:18;99240.26;;;10.52;40.79
62703;BME280;66022;50.448;18.122;2023-03-18T18:32:20;99238.84;;;10.48;40.53
62703;BME280;66022;50.448;18.122;2023-03-18T18:36:22;99238.48;;;10.41;38.76
62703;BME280;66022;50.448;18.122;2023-03-18T18:40:26;99238.49;;;10.37;40.91
62703;BME280;66022;50.448;18.122;2023-03-18T18:44:30;99238.78;;;10.32;40.77
62703;BME280;66022;50.448;18.122;2023-03-18T18:48:34;99238.97;;;10.25;40.89
62703;BME280;66022;50.448;18.122;2023-03-18T18:52:42;99241.31;;;10.21;41.67
62703;BME280;66022;50.448;18.122;2023-03-18T18:56:42;99242.26;;;10.15;41.41
62703;BME280;66022;50.448;18.122;2023-03-18T19:00:46;99242.11;;;10.11;41.24
62703;BME280;66022;50.448;18.122;2023-03-18T19:04:50;99242.38;;;10.06;41.73
62703;BME280;66022;50.448;18.122;2023-03-18T19:08:54;99243.27;;;10.00;40.68
62703;BME280;66022;50.448;18.122;2023-03-18T19:12:58;99243.93;;;9.97;41.29
62703;BME280;66022;50.448;18.122;2023-03-18T19:17:02;99246.54;;;9.91;41.41
62703;BME280;66022;50.448;18.122;2023-03-18T19:21:06;99247.24;;;9.89;41.67
62703;BME280;66022;50.448;18.122;2023-03-18T19:25:11;99248.25;;;9.86;41.08
62703;BME280;66022;50.448;18.122;2023-03-18T19:29:14;99249.98;;;9.81;42.24
62703;BME280;66022;50.448;18.122;2023-03-18T19:33:23;99251.07;;;9.78;42.31
62703;BME280;66022;50.448;18.122;2023-03-18T19:37:26;99250.39;;;9.75;41.86
62703;BME280;66022;50.448;18.122;2023-03-18T19:41:26;99249.00;;;9.72;42.30
62703;BME280;66022;50.448;18.122;2023-03-18T19:45:30;99249.75;;;9.69;41.52
62703;BME280;66022;50.448;18.122;2023-03-18T19:49:37;99250.81;;;9.66;41.75
62703;BME280;66022;50.448;18.122;2023-03-18T19:53:38;99252.19;;;9.63;42.01
62703;BME280;66022;50.448;18.122;2023-03-18T19:57:42;99254.32;;;9.61;41.15
62703;BME280;66022;50.448;18.122;2023-03-18T20:01:46;99255.13;;;9.59;41.43
62703;BME280;66022;50.448;18.122;2023-03-18T20:05:50;99256.52;;;9.56;39.69
62703;BME280;66022;50.448;18.122;2023-03-18T20:09:54;99258.39;;;9.55;41.46
62703;BME280;66022;50.448;18.122;2023-03-18T20:18:04;99260.58;;;9.53;41.88
62703;BME280;66022;50.448;18.122;2023-03-18T20:22:10;99262.12;;;9.57;41.88
62703;BME280;66022;50.448;18.122;2023-03-18T20:26:13;99263.39;;;9.57;39.52
62703;BME280;66022;50.448;18.122;2023-03-18T20:30:23;99263.64;;;9.61;41.88
62703;BME280;66022;50.448;18.122;2023-03-18T20:34:18;99263.76;;;9.63;42.03
62703;BME280;66022;50.448;18.122;2023-03-18T20:38:26;99264.07;;;9.60;42.42
62703;BME280;66022;50.448;18.122;2023-03-18T20:42:26;99263.25;;;9.59;42.97
62703;BME280;66022;50.448;18.122;2023-03-18T20:46:30;99262.20;;;9.52;41.75
62703;BME280;66022;50.448;18.122;2023-03-18T20:50:34;99261.13;;;9.48;43.22
62703;BME280;66022;50.448;18.122;2023-03-18T20:54:40;99260.13;;;9.41;43.66
62703;BME280;66022;50.448;18.122;2023-03-18T20:58:42;99258.09;;;9.33;43.61
62703;BME280;66022;50.448;18.122;2023-03-18T21:02:50;99256.20;;;9.26;43.93
62703;BME280;66022;50.448;18.122;2023-03-18T21:06:50;99254.63;;;9.16;43.94
62703;BME280;66022;50.448;18.122;2023-03-18T21:10:54;99252.33;;;9.07;44.15
62703;BME280;66022;50.448;18.122;2023-03-18T21:14:58;99250.89;;;8.98;44.62
62703;BME280;66022;50.448;18.122;2023-03-18T21:19:02;99251.28;;;8.88;44.36
62703;BME280;66022;50.448;18.122;2023-03-18T21:31:35;99250.16;;;8.61;44.91
62703;BME280;66022;50.448;18.122;2023-03-18T21:35:20;99249.69;;;8.53;45.20
62703;BME280;66022;50.448;18.122;2023-03-18T21:39:22;99249.49;;;8.45;45.02
62703;BME280;66022;50.448;18.122;2023-03-18T21:47:31;99250.66;;;8.29;45.37
62703;BME280;66022;50.448;18.122;2023-03-18T21:51:35;99251.09;;;8.23;45.80
62703;BME280;66022;50.448;18.122;2023-03-18T21:55:40;99250.76;;;8.15;45.78
62703;BME280;66022;50.448;18.122;2023-03-18T21:59:43;99250.84;;;8.08;45.78
62703;BME280;66022;50.448;18.122;2023-03-18T22:03:47;99251.33;;;8.03;46.04
62703;BME280;66022;50.448;18.122;2023-03-18T22:07:51;99251.34;;;7.95;45.92
62703;BME280;66022;50.448;18.122;2023-03-18T22:11:55;99251.23;;;7.89;46.09
62703;BME280;66022;50.448;18.122;2023-03-18T22:15:59;99251.06;;;7.82;44.72
62703;BME280;66022;50.448;18.122;2023-03-18T22:20:03;99251.37;;;7.78;45.82
62703;BME280;66022;50.448;18.122;2023-03-18T22:24:08;99252.26;;;7.74;46.18
62703;BME280;66022;50.448;18.122;2023-03-18T22:28:11;99253.27;;;7.66;46.04
62703;BME280;66022;50.448;18.122;2023-03-18T22:32:20;99254.55;;;7.63;46.18
62703;BME280;66022;50.448;18.122;2023-03-18T22:36:19;99254.44;;;7.56;45.25
62703;BME280;66022;50.448;18.122;2023-03-18T22:40:24;99254.91;;;7.53;46.36
62703;BME280;66022;50.448;18.122;2023-03-18T22:44:27;99255.42;;;7.50;46.56
62703;BME280;66022;50.448;18.122;2023-03-18T22:48:31;99256.71;;;7.45;46.78
62703;BME280;66022;50.448;18.122;2023-03-18T22:52:35;99258.69;;;7.42;46.94
62703;BME280;66022;50.448;18.122;2023-03-18T22:56:39;99259.66;;;7.35;46.88
62703;BME280;66022;50.448;18.122;2023-03-18T23:00:43;99261.78;;;7.31;47.22
62703;BME280;66022;50.448;18.122;2023-03-18T23:04:47;99263.93;;;7.26;47.24
62703;BME280;66022;50.448;18.122;2023-03-18T23:08:51;99265.15;;;7.21;47.44
62703;BME280;66022;50.448;18.122;2023-03-18T23:12:55;99266.50;;;7.17;47.62
62703;BME280;66022;50.448;18.122;2023-03-18T23:16:59;99267.81;;;7.10;47.99
62703;BME280;66022;50.448;18.122;2023-03-18T23:21:03;99268.76;;;7.05;48.13
62703;BME280;66022;50.448;18.122;2023-03-18T23:25:10;99270.81;;;7.00;48.31
62703;BME280;66022;50.448;18.122;2023-03-18T23:29:11;99272.11;;;6.94;48.73
62703;BME280;66022;50.448;18.122;2023-03-18T23:33:15;99272.81;;;6.88;49.08
62703;BME280;66022;50.448;18.122;2023-03-18T23:37:19;99273.05;;;6.81;49.29
62703;BME280;66022;50.448;18.122;2023-03-18T23:41:23;99273.74;;;6.76;49.57
62703;BME280;66022;50.448;18.122;2023-03-18T23:45:27;99275.02;;;6.70;49.75
62703;BME280;66022;50.448;18.122;2023-03-18T23:49:31;99275.16;;;6.64;49.76
62703;BME280;66022;50.448;18.122;2023-03-18T23:53:35;99274.67;;;6.58;50.14
62703;BME280;66022;50.448;18.122;2023-03-18T23:57:39;99274.06;;;6.52;50.40
